Time;durP1;ratioP1;P1;durP2;ratioP2;P2;SDS_P1;SDS_P2;PMS_P1;PMS_P2;Temp;Humidity;BMP_temperature;BMP_pressure;BME280_temperature;BME280_humidity;BME280_pressure;Samples;Min_cycle;Max_cycle;Signal;HPM_P1;HPM_P2
2023/04/05 00:00:21;;;;;;;6.28;2.95;;;;;;;5.13;50.48;101116.25;10131947;29;20063;-79
2023/04/05 00:05:28;;;;;;;7.57;2.63;;;;;;;5.00;51.18;101120.84;10133074;29;20056;-71
2023/04/05 00:10:30;;;;;;;7.05;3.20;;;;;;;4.94;50.95;101116.00;10137077;29;20527;-76
2023/04/05 00:15:32;;;;;;;3.75;2.60;;;;;;;4.96;51.19;101106.06;10146856;29;20060;-74
2023/04/05 00:20:36;;;;;;;6.38;3.53;;;;;;;4.87;51.29;101110.28;10147254;29;20044;-74
2023/04/05 00:25:37;;;;;;;3.70;2.88;;;;;;;4.69;51.62;101111.72;10139953;29;20112;-78
2023/04/05 00:30:39;;;;;;;6.20;3.10;;;;;;;4.60;52.29;101118.63;10142092;29;20059;-73
2023/04/05 00:35:41;;;;;;;4.03;2.67;;;;;;;4.50;52.34;101107.84;10142018;29;20080;-75
2023/04/05 00:40:42;;;;;;;4.28;2.60;;;;;;;4.51;51.83;101108.69;10140998;29;20428;-73
2023/04/05 00:45:44;;;;;;;5.18;2.63;;;;;;;4.51;52.07;101106.84;10128627;29;20052;-77
2023/04/05 00:50:48;;;;;;;5.30;2.50;;;;;;;4.53;52.21;101096.94;10133226;29;20128;-75
2023/04/05 00:55:53;;;;;;;3.60;2.03;;;;;;;4.45;52.20;101098.50;10142933;29;20132;-79
2023/04/05 01:01:12;;;;;;;5.45;2.40;;;;;;;4.38;52.45;101092.78;10128076;29;20449;-77
2023/04/05 01:06:36;;;;;;;4.82;3.42;;;;;;;4.14;52.90;101090.19;10128128;29;20051;-78
2023/04/05 01:11:39;;;;;;;3.80;2.85;;;;;;;4.01;53.14;101084.94;10125748;29;20453;-75
2023/04/05 01:16:40;;;;;;;6.03;3.03;;;;;;;3.98;53.56;101086.00;10143765;29;20112;-75
2023/04/05 01:22:20;;;;;;;5.53;3.35;;;;;;;3.96;53.40;101079.13;10141953;29;20036;-78
2023/04/05 01:27:40;;;;;;;5.55;3.17;;;;;;;3.82;53.53;101069.50;10147503;29;20182;-77
2023/04/05 01:32:59;;;;;;;5.65;4.53;;;;;;;3.71;53.85;101072.97;10131343;29;20672;-73
2023/04/05 01:38:03;;;;;;;6.35;3.08;;;;;;;3.56;54.35;101064.31;10143565;29;20507;-77
2023/04/05 01:43:12;;;;;;;2.92;2.50;;;;;;;3.45;54.59;101058.94;10141201;29;20107;-73
2023/04/05 01:48:14;;;;;;;5.18;2.25;;;;;;;3.26;54.91;101063.88;10129027;29;20051;-75
2023/04/05 01:53:16;;;;;;;3.97;2.40;;;;;;;3.17;55.24;101060.94;10146947;29;20122;-79
2023/04/05 01:58:17;;;;;;;10.15;3.08;;;;;;;3.23;55.23;101064.97;10126094;29;20048;-75
2023/04/05 02:03:19;;;;;;;3.33;2.45;;;;;;;3.28;54.67;101064.63;10127000;29;20053;-75
2023/04/05 02:08:21;;;;;;;3.42;2.63;;;;;;;3.12;55.29;101064.88;10139337;29;20040;-77
2023/04/05 02:13:24;;;;;;;5.25;2.60;;;;;;;3.05;55.43;101048.53;10133322;29;20060;-76
2023/04/05 02:18:31;;;;;;;5.75;2.85;;;;;;;3.13;54.71;101055.97;10153784;29;20055;-77
2023/04/05 02:23:34;;;;;;;4.65;3.03;;;;;;;2.98;55.14;101063.22;10142465;29;20087;-77
2023/04/05 02:28:35;;;;;;;5.13;2.78;;;;;;;2.91;55.08;101054.84;10152356;29;20056;-74
2023/04/05 02:33:38;;;;;;;3.50;2.42;;;;;;;2.88;55.68;101051.56;10133424;29;20079;-76
2023/04/05 02:38:39;;;;;;;3.33;2.25;;;;;;;2.74;55.04;101053.38;10138556;29;20048;-74
2023/04/05 02:43:41;;;;;;;4.93;2.60;;;;;;;2.64;55.63;101060.28;10141163;29;20118;-77
2023/04/05 02:48:44;;;;;;;4.05;2.08;;;;;;;2.62;55.51;101062.19;10150042;29;20048;-76
2023/04/05 02:53:46;;;;;;;5.35;2.60;;;;;;;2.69;55.72;101054.69;10147851;29;20048;-79
2023/04/05 02:58:48;;;;;;;4.40;2.20;;;;;;;2.74;55.58;101053.38;10154612;29;20058;-76
2023/04/05 03:03:50;;;;;;;4.18;3.08;;;;;;;2.75;56.00;101054.25;10146161;29;20060;-76
2023/04/05 03:08:52;;;;;;;5.32;2.25;;;;;;;2.72;55.90;101038.50;10146818;29;20052;-75
2023/04/05 03:13:54;;;;;;;3.67;2.42;;;;;;;2.70;55.73;101041.28;10148009;29;20052;-78
2023/04/05 03:18:56;;;;;;;4.68;2.97;;;;;;;2.70;55.71;101037.78;10143717;29;20191;-73
2023/04/05 03:23:57;;;;;;;3.90;2.47;;;;;;;2.68;55.59;101037.88;10114375;29;20048;-77
2023/04/05 03:28:58;;;;;;;4.78;2.65;;;;;;;2.64;55.83;101043.53;10149300;29;20136;-76
2023/04/05 03:34:00;;;;;;;4.13;2.92;;;;;;;2.60;56.36;101039.38;10129733;29;20490;-74
2023/04/05 03:39:01;;;;;;;5.97;3.17;;;;;;;2.54;56.19;101043.31;10147762;29;20519;-73
2023/04/05 03:44:03;;;;;;;6.78;3.42;;;;;;;2.48;56.63;101033.13;10144420;29;20044;-77
2023/04/05 03:49:06;;;;;;;7.32;2.63;;;;;;;2.45;56.90;101038.63;10129342;29;20092;-73
2023/04/05 03:54:07;;;;;;;3.67;2.55;;;;;;;2.42;57.21;101036.22;10149577;29;20047;-77
2023/04/05 03:59:09;;;;;;;5.72;2.88;;;;;;;2.38;56.62;101025.81;10143424;29;20135;-76
2023/04/05 04:04:12;;;;;;;5.22;2.55;;;;;;;2.41;56.08;101021.22;10136692;29;20547;-77
2023/04/05 04:09:13;;;;;;;6.18;2.88;;;;;;;2.35;56.85;101018.06;10130567;29;20112;-77
2023/04/05 04:14:15;;;;;;;5.25;3.28;;;;;;;2.34;56.89;101016.34;10148328;29;20048;-73
2023/04/05 04:19:17;;;;;;;6.70;3.75;;;;;;;2.34;56.81;101020.81;10127754;29;20119;-77
2023/04/05 04:24:19;;;;;;;5.43;2.65;;;;;;;2.26;56.80;101023.16;10148899;29;20109;-74
2023/04/05 04:29:29;;;;;;;7.95;3.08;;;;;;;2.26;57.40;101033.78;10145758;29;20052;-75
2023/04/05 04:34:33;;;;;;;6.22;3.17;;;;;;;2.25;56.72;101029.41;10133358;29;20072;-71
2023/04/05 04:39:38;;;;;;;5.45;3.50;;;;;;;2.20;57.03;101027.06;10133973;29;20040;-75
2023/04/05 04:44:41;;;;;;;7.40;3.40;;;;;;;2.12;56.91;101026.75;10135391;29;20457;-72
2023/04/05 04:49:42;;;;;;;6.32;3.75;;;;;;;2.11;57.43;101019.75;10133980;29;20160;-75
2023/04/05 04:54:46;;;;;;;4.68;3.65;;;;;;;2.10;57.68;101013.59;10140725;29;20052;-74
2023/04/05 04:59:47;;;;;;;6.40;3.35;;;;;;;2.13;57.93;101016.06;10133639;29;20492;-74
2023/04/05 05:04:49;;;;;;;5.15;3.47;;;;;;;2.18;57.72;101024.53;10137194;29;20471;-73
2023/04/05 05:09:51;;;;;;;5.10;3.30;;;;;;;2.19;57.39;101017.41;10128988;29;20059;-73
2023/04/05 05:14:52;;;;;;;9.88;3.63;;;;;;;2.21;57.61;101033.22;10126257;29;20055;-74
2023/04/05 05:19:54;;;;;;;4.30;3.35;;;;;;;2.20;58.05;101028.88;10142070;29;20063;-74
2023/04/05 05:24:56;;;;;;;7.93;4.07;;;;;;;2.23;57.50;101026.84;10139810;29;20044;-74
2023/04/05 05:29:58;;;;;;;4.15;2.95;;;;;;;2.30;57.57;101033.44;10120230;29;20055;-73
2023/04/05 05:34:59;;;;;;;8.43;3.60;;;;;;;2.38;57.44;101030.25;10128894;29;20905;-73
2023/04/05 05:40:01;;;;;;;5.85;3.22;;;;;;;2.47;57.28;101029.63;10145026;29;20731;-73
2023/04/05 05:45:04;;;;;;;8.23;4.20;;;;;;;2.56;57.38;101036.94;10149511;29;20044;-74
2023/04/05 05:50:07;;;;;;;7.63;4.00;;;;;;;2.66;57.46;101033.66;10149383;29;20109;-74
2023/04/05 05:55:09;;;;;;;6.40;3.33;;;;;;;2.76;56.94;101040.88;10153800;29;20044;-73
2023/04/05 06:00:11;;;;;;;7.07;3.13;;;;;;;2.86;57.04;101043.69;10146887;29;20389;-74
2023/04/05 06:05:13;;;;;;;6.25;3.67;;;;;;;2.83;57.89;101043.09;10152546;29;20048;-75
2023/04/05 06:10:14;;;;;;;4.63;3.65;;;;;;;2.97;57.33;101049.09;10133355;29;20111;-74
2023/04/05 06:15:15;;;;;;;9.85;4.57;;;;;;;3.19;57.73;101036.94;10128335;29;20484;-74
2023/04/05 06:20:17;;;;;;;7.90;4.30;;;;;;;3.34;57.08;101037.63;10132737;29;20060;-74
2023/04/05 06:25:18;;;;;;;5.57;4.00;;;;;;;3.49;57.65;101041.78;10148502;29;20148;-73
2023/04/05 06:30:20;;;;;;;7.60;4.03;;;;;;;3.66;57.62;101039.72;10151343;29;20816;-73
2023/04/05 06:35:22;;;;;;;6.93;4.03;;;;;;;3.77;57.30;101031.75;10153981;29;20071;-73
2023/04/05 06:40:24;;;;;;;9.40;4.45;;;;;;;3.96;57.58;101025.91;10149737;29;20100;-74
2023/04/05 06:45:25;;;;;;;8.90;4.65;;;;;;;4.10;57.50;101028.38;10149220;29;20075;-73
2023/04/05 06:50:26;;;;;;;7.88;4.15;;;;;;;4.13;57.49;101032.63;10153341;29;20120;-75
2023/04/05 06:55:28;;;;;;;9.13;4.30;;;;;;;4.33;57.29;101031.94;10123772;29;20068;-74
2023/04/05 07:00:30;;;;;;;10.40;4.47;;;;;;;4.52;57.17;101027.81;10151984;29;20059;-73
2023/04/05 07:05:31;;;;;;;6.60;3.97;;;;;;;4.63;57.45;101027.00;10146428;29;20401;-77
2023/04/05 07:10:33;;;;;;;10.70;4.25;;;;;;;4.74;56.92;101021.69;10152109;29;20592;-74
2023/04/05 07:15:34;;;;;;;8.65;4.28;;;;;;;4.95;56.65;101013.78;10130965;29;20081;-72
2023/04/05 07:20:36;;;;;;;8.27;4.10;;;;;;;5.17;56.50;101012.88;10150910;29;20336;-77
2023/04/05 07:25:41;;;;;;;5.85;3.85;;;;;;;5.45;55.70;101014.16;10137142;29;20052;-75
2023/04/05 07:30:42;;;;;;;7.32;3.35;;;;;;;5.59;55.74;101010.34;10155746;29;20519;-74
2023/04/05 07:35:44;;;;;;;5.65;3.40;;;;;;;5.75;55.02;101012.59;10136209;29;20557;-76
2023/04/05 07:40:49;;;;;;;3.53;2.83;;;;;;;5.99;54.71;101015.03;10154602;29;20127;-71
2023/04/05 07:45:59;;;;;;;7.20;3.88;;;;;;;6.19;54.13;101012.50;10152620;29;20049;-75
2023/04/05 07:51:08;;;;;;;3.42;2.47;;;;;;;6.30;53.81;100994.59;10145235;29;20100;-76
2023/04/05 07:56:11;;;;;;;6.47;2.70;;;;;;;6.50;53.11;100997.38;10139650;29;20044;-75
2023/04/05 08:01:12;;;;;;;3.35;2.35;;;;;;;6.65;51.74;101003.16;10155922;29;20048;-74
2023/04/05 08:06:18;;;;;;;8.55;2.92;;;;;;;6.78;51.55;101000.28;10161187;29;20044;-74
2023/04/05 08:11:20;;;;;;;3.22;1.77;;;;;;;6.93;51.43;101001.56;10152143;29;20047;-75
2023/04/05 08:16:21;;;;;;;3.38;2.40;;;;;;;7.16;50.16;100996.84;10151210;29;20048;-74
2023/04/05 08:21:23;;;;;;;3.22;2.03;;;;;;;7.38;49.58;100989.56;10155324;29;20101;-73
2023/04/05 08:26:24;;;;;;;2.38;1.85;;;;;;;7.50;49.56;100977.75;10150203;29;20055;-75
2023/04/05 08:31:26;;;;;;;4.43;2.20;;;;;;;7.72;48.73;100980.16;10143751;29;20552;-75
2023/04/05 08:36:27;;;;;;;5.72;1.80;;;;;;;7.82;48.66;100974.78;10148751;29;20136;-73
2023/04/05 08:41:39;;;;;;;6.28;2.17;;;;;;;7.98;47.83;100982.25;10130428;29;20051;-73
2023/04/05 08:46:42;;;;;;;3.20;2.08;;;;;;;8.13;47.63;100985.28;10124590;29;20354;-72
2023/04/05 08:51:44;;;;;;;2.78;2.20;;;;;;;8.28;46.76;100978.50;10132641;29;20179;-74
2023/04/05 08:56:48;;;;;;;3.50;2.05;;;;;;;8.45;45.91;100974.25;10144697;29;20044;-73
2023/04/05 09:01:50;;;;;;;4.40;1.70;;;;;;;8.50;46.05;100966.59;10144467;29;20040;-72
2023/04/05 09:06:56;;;;;;;2.42;1.92;;;;;;;8.74;44.94;100965.22;10142503;29;20535;-71
2023/04/05 09:11:58;;;;;;;3.22;1.90;;;;;;;8.76;45.08;100967.75;10139566;29;20056;-71
2023/04/05 09:17:03;;;;;;;3.33;1.70;;;;;;;8.78;43.95;100958.56;10131669;29;20500;-75
2023/04/05 09:22:07;;;;;;;7.30;1.77;;;;;;;8.99;43.18;100960.16;10149687;29;20496;-71
2023/04/05 09:27:10;;;;;;;5.90;1.90;;;;;;;9.26;42.54;100960.13;10144186;29;20059;-75
2023/04/05 09:32:14;;;;;;;6.20;3.03;;;;;;;9.42;41.69;100956.75;10140469;29;20508;-74
2023/04/05 09:37:20;;;;;;;3.45;1.98;;;;;;;9.46;41.50;100960.81;10146696;29;20143;-75
2023/04/05 09:42:22;;;;;;;5.15;2.53;;;;;;;9.63;41.36;100958.28;10142554;29;20063;-75
2023/04/05 09:47:29;;;;;;;3.15;1.95;;;;;;;9.84;40.82;100960.63;10126702;29;20057;-73
2023/04/05 09:52:32;;;;;;;3.38;2.00;;;;;;;9.96;40.39;100951.31;10140040;29;20119;-72
2023/04/05 09:57:35;;;;;;;4.57;2.08;;;;;;;10.19;39.76;100943.59;10141585;29;20472;-71
2023/04/05 10:02:38;;;;;;;2.45;1.70;;;;;;;10.33;39.79;100944.88;10108069;29;20051;-73
2023/04/05 10:07:44;;;;;;;2.58;1.35;;;;;;;10.38;39.05;100941.69;10126587;29;20107;-72
2023/04/05 10:12:46;;;;;;;5.38;1.67;;;;;;;10.37;38.42;100940.84;10134597;29;20048;-78
2023/04/05 10:17:52;;;;;;;2.22;1.60;;;;;;;10.51;37.85;100945.63;10138369;29;20198;-75
2023/04/05 10:23:12;;;;;;;3.97;1.60;;;;;;;10.46;37.27;100937.19;10140729;29;20397;-75
2023/04/05 10:28:34;;;;;;;2.88;1.52;;;;;;;10.80;36.76;100928.28;10143596;29;20506;-73
2023/04/05 10:33:46;;;;;;;2.20;1.33;;;;;;;11.14;36.72;100930.03;10150377;29;20037;-78
2023/04/05 10:38:57;;;;;;;8.00;1.70;;;;;;;11.43;35.85;100921.50;10150855;29;20048;-69
2023/04/05 10:44:03;;;;;;;4.32;1.63;;;;;;;11.76;35.73;100905.31;10144369;29;20428;-69
2023/04/05 10:49:28;;;;;;;2.70;1.85;;;;;;;12.28;34.85;100904.91;10163135;29;20039;-68
2023/04/05 10:54:35;;;;;;;2.95;1.63;;;;;;;12.68;34.96;100897.66;10142773;29;20131;-69
2023/04/05 10:59:42;;;;;;;2.53;1.50;;;;;;;13.15;34.04;100898.56;10150089;29;20053;-67
2023/04/05 11:04:44;;;;;;;2.92;1.58;;;;;;;13.24;33.83;100889.38;10131140;29;20044;-70
2023/04/05 11:10:03;;;;;;;5.55;1.92;;;;;;;13.52;33.39;100888.84;10148040;29;20128;-68
2023/04/05 11:15:28;;;;;;;3.30;1.60;;;;;;;13.63;33.10;100882.19;10149746;29;20063;-68
2023/04/05 11:20:40;;;;;;;3.25;1.60;;;;;;;13.92;32.62;100881.41;10147359;29;20107;-66
2023/04/05 11:25:49;;;;;;;4.10;1.92;;;;;;;14.03;32.25;100871.97;10143884;29;20040;-69
2023/04/05 11:30:55;;;;;;;4.45;2.10;;;;;;;14.27;31.98;100876.25;10134506;29;20040;-67
2023/04/05 11:36:01;;;;;;;3.53;2.00;;;;;;;14.11;33.11;100866.47;10160733;29;20052;-71
2023/04/05 11:41:11;;;;;;;6.00;2.17;;;;;;;14.28;32.64;100861.72;10178540;29;20598;-70
2023/04/05 11:46:14;;;;;;;2.90;1.90;;;;;;;14.41;31.99;100853.75;10181583;29;20040;-70
2023/04/05 11:51:19;;;;;;;2.15;1.55;;;;;;;14.55;31.25;100845.81;10151393;29;20064;-70
2023/04/05 11:56:21;;;;;;;4.60;1.73;;;;;;;14.71;30.75;100848.34;10149484;29;20103;-70
2023/04/05 12:01:22;;;;;;;4.75;2.05;;;;;;;14.70;30.25;100843.13;10161508;29;20040;-70
2023/04/05 12:06:25;;;;;;;3.00;1.77;;;;;;;14.54;30.50;100836.88;10155593;29;20089;-70
2023/04/05 12:11:29;;;;;;;4.95;2.30;;;;;;;14.48;30.27;100829.53;10132421;29;20056;-70
2023/04/05 12:16:31;;;;;;;2.25;1.77;;;;;;;14.80;29.92;100824.69;10131514;29;20587;-70
2023/04/05 12:21:32;;;;;;;3.17;1.75;;;;;;;15.09;29.64;100821.03;10140379;29;20069;-69
2023/04/05 12:26:34;;;;;;;3.17;2.05;;;;;;;15.45;28.86;100814.66;10141660;29;20139;-70
2023/04/05 12:31:49;;;;;;;4.85;2.17;;;;;;;15.60;29.08;100811.84;10141136;29;20369;-72
2023/04/05 12:36:51;;;;;;;2.28;1.40;;;;;;;16.06;28.10;100806.75;10139866;29;20048;-69
2023/04/05 12:41:57;;;;;;;3.35;1.52;;;;;;;16.96;27.17;100794.94;10139616;29;20059;-75
2023/04/05 12:47:07;;;;;;;5.15;1.70;;;;;;;17.34;26.38;100787.03;10135280;29;20068;-77
2023/04/05 12:52:10;;;;;;;2.67;2.03;;;;;;;16.97;26.84;100791.19;10143152;29;20097;-68
2023/04/05 12:57:13;;;;;;;5.13;1.85;;;;;;;16.91;26.59;100779.28;10137008;29;20068;-71
2023/04/05 13:02:14;;;;;;;2.47;1.63;;;;;;;17.12;25.82;100774.69;10141692;29;20071;-70
2023/04/05 13:07:15;;;;;;;2.58;1.23;;;;;;;16.99;25.52;100772.81;10142270;29;20679;-72
2023/04/05 13:12:17;;;;;;;2.60;1.35;;;;;;;16.96;25.63;100765.06;10140946;29;20753;-72
2023/04/05 13:17:18;;;;;;;2.83;1.23;;;;;;;17.27;25.09;100761.72;10125492;29;20115;-72
2023/04/05 13:22:20;;;;;;;3.53;1.85;;;;;;;17.30;24.59;100755.91;10138618;29;20572;-70
2023/04/05 13:27:21;;;;;;;3.28;2.33;;;;;;;16.98;24.65;100766.56;10129680;29;20048;-68
2023/04/05 13:32:23;;;;;;;2.13;1.77;;;;;;;16.79;24.78;100749.16;10137565;29;20084;-70
2023/04/05 13:37:25;;;;;;;3.85;1.50;;;;;;;16.98;24.47;100747.53;10128208;29;20051;-70
2023/04/05 13:42:26;;;;;;;2.83;1.30;;;;;;;17.45;24.13;100742.06;10134682;29;20047;-70
2023/04/05 13:47:28;;;;;;;3.67;1.33;;;;;;;17.91;23.61;100733.00;10136716;29;20079;-68
2023/04/05 13:52:29;;;;;;;5.78;2.80;;;;;;;18.01;23.60;100724.38;10139602;29;20064;-69
2023/04/05 13:57:31;;;;;;;3.03;1.13;;;;;;;18.48;23.45;100724.13;10134874;29;20131;-68
2023/04/05 14:02:32;;;;;;;1.88;1.17;;;;;;;18.35;23.31;100714.97;10139285;29;20059;-64
2023/04/05 14:07:34;;;;;;;2.22;1.38;;;;;;;18.69;23.06;100709.31;10132141;29;20056;-64
2023/04/05 14:12:36;;;;;;;2.78;1.13;;;;;;;18.56;23.27;100710.22;10148659;29;20107;-64
2023/04/05 14:17:37;;;;;;;3.47;1.27;;;;;;;18.99;22.79;100704.06;10134819;29;20075;-64
2023/04/05 14:22:39;;;;;;;2.03;1.20;;;;;;;19.48;22.28;100696.88;10147333;29;20048;-65
2023/04/05 14:27:41;;;;;;;4.28;1.38;;;;;;;19.49;22.56;100693.13;10145579;29;20076;-71
2023/04/05 14:32:44;;;;;;;2.55;1.30;;;;;;;19.39;22.34;100681.88;10144145;29;20087;-68
2023/04/05 14:37:45;;;;;;;2.70;1.30;;;;;;;19.49;21.98;100675.91;10130440;29;20040;-67
2023/04/05 14:42:46;;;;;;;1.92;1.30;;;;;;;19.88;21.80;100668.34;10148582;29;20074;-63
2023/04/05 14:47:50;;;;;;;4.97;2.00;;;;;;;22.22;19.82;100659.63;10141963;29;20052;-63
2023/04/05 14:52:52;;;;;;;1.65;1.10;;;;;;;22.72;19.36;100665.16;10140210;29;20044;-64
2023/04/05 14:57:54;;;;;;;3.25;1.30;;;;;;;23.13;19.01;100654.88;10140297;29;20123;-64
2023/04/05 15:02:55;;;;;;;2.45;1.77;;;;;;;23.10;18.68;100652.63;10141417;29;20797;-64
2023/04/05 15:07:56;;;;;;;1.50;0.80;;;;;;;21.90;19.22;100658.19;10141744;29;20048;-64
2023/04/05 15:12:58;;;;;;;2.13;1.35;;;;;;;21.31;19.81;100652.00;10137324;29;20185;-65
2023/04/05 15:18:00;;;;;;;3.20;1.20;;;;;;;20.77;20.29;100655.72;10142591;29;20080;-66
2023/04/05 15:23:01;;;;;;;2.97;1.30;;;;;;;19.90;20.70;100660.75;10139995;29;20048;-65
2023/04/05 15:28:04;;;;;;;2.75;1.30;;;;;;;19.99;20.43;100651.19;10146453;29;20575;-66
2023/04/05 15:33:07;;;;;;;4.20;1.17;;;;;;;20.54;20.21;100648.25;10139566;29;20056;-65
2023/04/05 15:38:08;;;;;;;3.97;1.20;;;;;;;20.37;19.70;100648.09;10143920;29;20408;-65
2023/04/05 15:43:10;;;;;;;5.25;1.45;;;;;;;19.75;20.02;100647.53;10138782;29;20075;-65
2023/04/05 15:48:14;;;;;;;3.92;1.08;;;;;;;19.31;20.16;100642.13;10144794;29;20585;-65
2023/04/05 15:53:16;;;;;;;5.25;0.90;;;;;;;19.01;20.36;100640.13;10138193;29;20123;-70
2023/04/05 15:58:17;;;;;;;3.42;1.50;;;;;;;18.73;20.42;100656.91;10133102;29;20079;-70
2023/04/05 16:03:18;;;;;;;2.40;1.20;;;;;;;18.47;20.80;100655.22;10123195;29;20087;-69
2023/04/05 16:08:20;;;;;;;2.38;1.27;;;;;;;18.33;20.89;100640.88;10120850;29;20052;-69
2023/04/05 16:13:22;;;;;;;3.33;1.13;;;;;;;18.17;20.98;100638.69;10137174;29;20104;-70
2023/04/05 16:18:24;;;;;;;1.85;1.13;;;;;;;18.01;20.99;100642.78;10134576;29;20079;-70
2023/04/05 16:23:26;;;;;;;3.05;1.83;;;;;;;17.90;20.77;100630.69;10137204;29;20060;-70
2023/04/05 16:28:27;;;;;;;2.45;0.80;;;;;;;17.74;21.04;100626.53;10139821;29;20595;-70
2023/04/05 16:33:29;;;;;;;1.00;0.90;;;;;;;17.81;20.65;100626.50;10121520;29;20429;-70
2023/04/05 16:38:30;;;;;;;6.22;1.33;;;;;;;17.88;20.70;100630.06;10126499;29;20099;-70
2023/04/05 16:43:31;;;;;;;3.65;1.10;;;;;;;17.83;20.59;100630.72;10118407;29;20056;-70
2023/04/05 16:48:33;;;;;;;3.22;1.30;;;;;;;17.78;20.64;100624.22;10120893;29;20222;-70
2023/04/05 16:53:34;;;;;;;5.75;1.33;;;;;;;17.75;20.49;100622.78;10117990;29;20075;-70
2023/04/05 16:58:36;;;;;;;1.23;0.80;;;;;;;17.58;20.93;100627.88;10125112;29;20107;-70
2023/04/05 17:03:37;;;;;;;3.08;1.10;;;;;;;17.56;20.78;100621.81;10127189;29;20051;-71
2023/04/05 17:08:39;;;;;;;3.72;1.00;;;;;;;17.38;20.54;100613.53;10120340;29;20056;-70
2023/04/05 17:13:40;;;;;;;3.58;1.40;;;;;;;16.93;21.09;100616.97;10132202;29;20051;-69
2023/04/05 17:18:42;;;;;;;2.83;1.40;;;;;;;16.49;21.98;100628.44;10117329;29;20706;-68
2023/04/05 17:23:43;;;;;;;3.70;1.00;;;;;;;16.13;22.19;100637.78;10121996;29;20496;-70
2023/04/05 17:28:45;;;;;;;4.38;1.40;;;;;;;15.75;22.63;100624.75;10138286;29;20115;-68
2023/04/05 17:33:47;;;;;;;2.28;1.00;;;;;;;15.35;23.06;100627.28;10135033;29;20044;-70
2023/04/05 17:38:49;;;;;;;1.60;1.15;;;;;;;14.90;23.24;100626.78;10143225;29;20055;-69
2023/04/05 17:43:50;;;;;;;1.60;0.90;;;;;;;14.48;23.49;100632.06;10127546;29;20683;-68
2023/04/05 17:48:52;;;;;;;2.63;1.17;;;;;;;14.15;24.28;100635.25;10142641;29;20076;-69
2023/04/05 17:53:56;;;;;;;3.20;1.08;;;;;;;13.84;24.35;100631.00;10145182;29;20153;-68
2023/04/05 17:58:57;;;;;;;2.60;1.30;;;;;;;13.52;24.96;100631.44;10132090;29;20082;-63
2023/04/05 18:03:59;;;;;;;3.72;1.55;;;;;;;13.22;25.52;100634.13;10148109;29;20059;-64
2023/04/05 18:09:01;;;;;;;3.63;2.55;;;;;;;12.96;25.67;100642.69;10142466;29;20052;-64
2023/04/05 18:14:04;;;;;;;2.63;1.60;;;;;;;12.70;26.63;100633.16;10150665;29;20054;-63
2023/04/05 18:19:05;;;;;;;4.63;2.40;;;;;;;12.43;27.20;100637.25;10145941;29;20057;-66
2023/04/05 18:24:09;;;;;;;12.18;7.60;;;;;;;12.19;28.13;100643.69;10146820;29;20052;-63
2023/04/05 18:29:11;;;;;;;8.48;3.83;;;;;;;11.81;28.82;100648.91;10152598;29;20064;-64
2023/04/05 18:34:12;;;;;;;6.65;3.85;;;;;;;11.56;29.14;100646.34;10140443;29;20054;-64
2023/04/05 18:39:15;;;;;;;7.88;5.03;;;;;;;11.32;29.73;100650.81;10144480;29;20528;-64
2023/04/05 18:44:16;;;;;;;7.07;3.97;;;;;;;11.08;30.90;100653.59;10138707;29;20055;-64
2023/04/05 18:49:17;;;;;;;6.57;3.90;;;;;;;10.82;31.25;100659.16;10143385;29;20135;-65
2023/04/05 18:54:19;;;;;;;11.98;3.70;;;;;;;10.59;31.63;100672.47;10143790;29;20054;-65
2023/04/05 18:59:21;;;;;;;4.45;2.40;;;;;;;10.39;31.85;100670.09;10119780;29;20068;-64
2023/04/05 19:04:23;;;;;;;7.68;2.13;;;;;;;9.99;32.62;100674.38;10147177;29;20049;-65
2023/04/05 19:09:25;;;;;;;5.18;3.67;;;;;;;9.80;33.23;100680.88;10128989;29;20089;-64
2023/04/05 19:14:26;;;;;;;6.97;3.53;;;;;;;9.64;33.44;100681.66;10146533;29;20519;-65
2023/04/05 19:19:28;;;;;;;10.50;4.68;;;;;;;9.29;34.74;100691.53;10141718;29;20048;-64
2023/04/05 19:24:29;;;;;;;7.88;4.05;;;;;;;8.95;34.99;100687.97;10148077;29;20076;-65
2023/04/05 19:29:33;;;;;;;12.90;5.38;;;;;;;8.85;35.50;100696.13;10137874;29;20075;-65
2023/04/05 19:34:36;;;;;;;13.02;6.43;;;;;;;8.62;35.63;100696.59;10153192;29;20108;-64
2023/04/05 19:39:38;;;;;;;12.05;5.82;;;;;;;8.57;35.81;100696.25;10133662;29;20044;-64
2023/04/05 19:44:45;;;;;;;11.13;5.90;;;;;;;8.53;36.37;100701.06;10149230;29;20052;-64
2023/04/05 19:49:48;;;;;;;17.40;10.52;;;;;;;8.46;36.72;100699.16;10151932;29;20717;-64
2023/04/05 19:54:52;;;;;;;12.93;7.85;;;;;;;8.32;36.97;100697.81;10140107;29;20080;-64
2023/04/05 19:59:53;;;;;;;5.03;2.97;;;;;;;8.09;37.15;100695.56;10137266;29;20063;-62
2023/04/05 20:04:55;;;;;;;5.85;2.28;;;;;;;7.82;37.77;100699.13;10154319;29;20115;-64
2023/04/05 20:09:56;;;;;;;5.25;2.58;;;;;;;7.60;38.21;100699.50;10120919;29;20056;-63
2023/04/05 20:14:57;;;;;;;5.88;2.97;;;;;;;7.60;38.39;100715.56;10145707;29;20052;-63
2023/04/05 20:20:00;;;;;;;5.90;3.58;;;;;;;7.52;38.36;100708.28;10146053;29;20044;-64
2023/04/05 20:25:37;;;;;;;6.57;3.42;;;;;;;7.44;38.96;100700.16;10149920;29;20051;-66
2023/04/05 20:30:39;;;;;;;9.50;3.63;;;;;;;7.32;39.00;100700.31;10141016;29;20056;-67
2023/04/05 20:35:40;;;;;;;5.38;3.80;;;;;;;7.26;38.97;100690.22;10137521;29;20052;-68
2023/04/05 20:40:41;;;;;;;4.80;3.17;;;;;;;7.15;39.19;100691.25;10123859;29;20047;-66
2023/04/05 20:45:43;;;;;;;7.57;3.60;;;;;;;7.09;39.54;100686.47;10133343;29;20481;-68
2023/04/05 20:50:45;;;;;;;6.70;4.00;;;;;;;7.01;39.68;100686.38;10145717;29;20055;-64
2023/04/05 20:55:49;;;;;;;9.02;4.55;;;;;;;6.99;40.79;100683.00;10146583;29;20048;-66
2023/04/05 21:00:50;;;;;;;7.43;4.03;;;;;;;6.94;40.74;100680.75;10153495;29;20036;-63
2023/04/05 21:05:52;;;;;;;7.35;4.30;;;;;;;6.81;41.47;100679.38;10116667;29;20496;-65
2023/04/05 21:10:54;;;;;;;8.10;4.20;;;;;;;6.74;42.05;100679.94;10145671;29;20048;-70
2023/04/05 21:15:56;;;;;;;6.97;3.58;;;;;;;6.65;42.42;100677.28;10141261;29;20048;-69
2023/04/05 21:20:59;;;;;;;8.45;4.00;;;;;;;6.55;42.99;100677.28;10143148;29;20075;-68
2023/04/05 21:26:01;;;;;;;5.22;3.05;;;;;;;6.41;43.42;100680.38;10142965;29;20071;-65
2023/04/05 21:31:02;;;;;;;5.97;3.63;;;;;;;6.27;43.66;100678.97;10147977;29;20064;-68
2023/04/05 21:36:04;;;;;;;7.60;3.85;;;;;;;6.11;43.99;100677.69;10144681;29;20040;-62
2023/04/05 21:41:05;;;;;;;4.75;2.95;;;;;;;5.92;44.69;100681.19;10139475;29;20040;-66
2023/04/05 21:46:06;;;;;;;6.60;3.33;;;;;;;5.91;44.94;100676.81;10131625;29;20044;-65
2023/04/05 21:51:08;;;;;;;5.93;3.55;;;;;;;5.86;45.03;100680.88;10143097;29;20780;-62
2023/04/05 21:56:09;;;;;;;6.28;3.63;;;;;;;5.79;45.62;100685.06;10127422;29;20052;-61
2023/04/05 22:01:12;;;;;;;6.07;3.38;;;;;;;5.65;45.76;100683.63;10128559;29;20544;-65
2023/04/05 22:06:13;;;;;;;7.88;3.92;;;;;;;5.49;46.24;100684.97;10141147;29;20051;-64
2023/04/05 22:11:15;;;;;;;9.77;4.57;;;;;;;5.50;46.42;100685.81;10144747;29;20660;-64
2023/04/05 22:16:16;;;;;;;6.90;4.07;;;;;;;5.44;46.36;100687.19;10127991;29;20137;-65
2023/04/05 22:21:17;;;;;;;10.32;3.90;;;;;;;5.39;46.04;100680.56;10146528;29;20048;-64
2023/04/05 22:26:19;;;;;;;7.93;4.40;;;;;;;5.17;46.82;100687.78;10154109;29;20044;-66
2023/04/05 22:31:21;;;;;;;8.20;4.15;;;;;;;5.24;46.97;100690.78;10153299;29;20119;-67
2023/04/05 22:36:22;;;;;;;8.88;5.35;;;;;;;5.21;47.18;100694.50;10140801;29;20369;-64
2023/04/05 22:41:23;;;;;;;7.60;4.25;;;;;;;5.19;47.13;100688.47;10152978;29;20040;-63
2023/04/05 22:46:26;;;;;;;9.20;4.30;;;;;;;4.91;47.82;100690.84;10152608;29;20048;-66
2023/04/05 22:51:27;;;;;;;9.38;5.32;;;;;;;4.87;47.58;100688.59;10135918;29;20050;-63
2023/04/05 22:56:30;;;;;;;10.13;5.15;;;;;;;4.84;48.10;100689.72;10152271;29;20048;-63
2023/04/05 23:01:31;;;;;;;12.68;4.95;;;;;;;4.78;48.27;100684.91;10153644;29;20047;-63
2023/04/05 23:06:33;;;;;;;13.32;6.80;;;;;;;4.57;48.77;100685.72;10146862;29;20155;-67
2023/04/05 23:11:34;;;;;;;6.35;3.60;;;;;;;4.20;49.68;100690.59;10145271;29;20068;-62
2023/04/05 23:16:35;;;;;;;8.57;4.20;;;;;;;4.33;49.37;100683.31;10134593;29;20052;-62
2023/04/05 23:21:37;;;;;;;14.55;5.80;;;;;;;4.46;49.10;100688.44;10147829;29;20685;-63